createdAt,value
2023-02-02T00:02:13.855Z,3.00
2023-02-02T00:04:41.329Z,2.50
2023-02-02T00:07:09.644Z,2.27
2023-02-02T00:09:36.842Z,3.03
2023-02-02T00:12:04.517Z,2.33
2023-02-02T00:14:32.147Z,2.67
2023-02-02T00:16:59.528Z,2.23
2023-02-02T00:19:30.716Z,2.30
2023-02-02T00:21:58.365Z,2.57
2023-02-02T00:24:25.647Z,2.53
2023-02-02T00:26:54.441Z,2.57
2023-02-02T00:29:23.347Z,2.27
2023-02-02T00:31:51.028Z,2.80
2023-02-02T00:34:18.414Z,2.47
2023-02-02T00:36:46.012Z,2.53
2023-02-02T00:39:15.865Z,2.47
2023-02-02T00:41:43.049Z,2.73
2023-02-02T00:44:28.843Z,2.50
2023-02-02T00:46:56.118Z,2.60
2023-02-02T00:49:23.360Z,2.17
2023-02-02T00:51:50.553Z,2.20
2023-02-02T00:54:17.747Z,2.13
2023-02-02T00:56:45.141Z,2.23
2023-02-02T00:59:12.315Z,2.20
2023-02-02T01:01:39.567Z,2.10
2023-02-02T01:04:06.751Z,2.27
2023-02-02T01:06:34.195Z,2.30
2023-02-02T01:09:01.403Z,2.70
2023-02-02T01:11:28.655Z,2.60
2023-02-02T01:13:56.236Z,2.47
2023-02-02T01:16:24.825Z,1.90
2023-02-02T01:18:52.749Z,1.83
2023-02-02T01:21:20.104Z,2.30
2023-02-02T01:23:47.440Z,2.37
2023-02-02T01:26:15.019Z,1.80
2023-02-02T01:28:42.534Z,2.27
2023-02-02T01:31:11.059Z,1.90
2023-02-02T01:33:38.572Z,2.50
2023-02-02T01:36:07.554Z,2.40
2023-02-02T01:38:35.043Z,2.13
2023-02-02T01:41:04.587Z,1.97
2023-02-02T01:43:50.293Z,2.20
2023-02-02T01:46:19.114Z,1.60
2023-02-02T01:48:52.860Z,1.60
2023-02-02T01:51:21.932Z,2.13
2023-02-02T01:53:50.626Z,1.60
2023-02-02T01:56:40.343Z,2.23
2023-02-02T01:59:07.771Z,2.20
2023-02-02T02:01:35.002Z,2.03
2023-02-02T02:04:02.371Z,2.17
2023-02-02T02:06:29.793Z,2.03
2023-02-02T02:09:00.340Z,1.90
2023-02-02T02:11:28.089Z,2.00
2023-02-02T02:14:15.242Z,2.03
2023-02-02T02:16:54.810Z,2.00
2023-02-02T02:19:32.695Z,1.90
2023-02-02T02:22:21.142Z,2.37
2023-02-02T02:25:33.110Z,2.00
2023-02-02T02:28:01.019Z,1.93
2023-02-02T02:30:39.266Z,2.17
2023-02-02T02:33:08.080Z,1.70
2023-02-02T02:35:35.250Z,2.17
2023-02-02T02:38:05.202Z,1.67
2023-02-02T02:40:32.400Z,1.60
2023-02-02T02:43:01.781Z,1.93
2023-02-02T02:45:31.783Z,1.80
2023-02-02T02:47:59.216Z,1.70
2023-02-02T02:50:26.521Z,1.50
2023-02-02T02:52:59.160Z,1.60
2023-02-02T02:55:28.832Z,2.13
2023-02-02T02:58:07.990Z,2.37
2023-02-02T03:00:47.548Z,2.50
2023-02-02T03:03:22.653Z,1.60
2023-02-02T03:05:49.807Z,2.67
2023-02-02T03:08:21.747Z,2.10
2023-02-02T03:10:49.109Z,2.30
2023-02-02T03:13:16.836Z,1.80
2023-02-02T03:15:47.275Z,2.80
2023-02-02T03:18:15.438Z,1.80
2023-02-02T03:20:43.872Z,1.83
2023-02-02T03:23:11.197Z,2.33
2023-02-02T03:25:38.633Z,2.03
2023-02-02T03:28:05.991Z,2.17
2023-02-02T03:30:33.676Z,1.80
2023-02-02T03:33:01.210Z,1.67
2023-02-02T03:35:28.415Z,2.00
2023-02-02T03:37:55.636Z,2.20
2023-02-02T03:40:22.882Z,1.87
2023-02-02T03:42:50.083Z,2.00
2023-02-02T03:45:18.097Z,2.07
2023-02-02T03:47:45.261Z,1.90
2023-02-02T03:50:12.439Z,2.17
2023-02-02T03:52:39.626Z,1.60
2023-02-02T03:55:07.014Z,2.33
2023-02-02T03:57:34.213Z,1.60
2023-02-02T04:00:01.356Z,1.40
2023-02-02T04:02:28.688Z,1.03
2023-02-02T04:04:55.909Z,1.57
2023-02-02T04:07:23.112Z,1.33
2023-02-02T04:09:50.362Z,1.10
2023-02-02T04:12:17.561Z,1.40
2023-02-02T04:14:44.764Z,1.43
2023-02-02T04:17:12.039Z,1.00
2023-02-02T04:19:39.280Z,0.73
2023-02-02T04:22:06.876Z,1.27
2023-02-02T04:24:34.099Z,0.90
2023-02-02T04:27:01.278Z,0.70
2023-02-02T04:29:28.547Z,0.60
2023-02-02T04:31:56.178Z,0.80
2023-02-02T04:34:23.389Z,0.70
2023-02-02T04:36:50.571Z,0.83
2023-02-02T04:39:17.801Z,0.90
2023-02-02T04:41:44.949Z,0.70
2023-02-02T04:44:18.885Z,0.57
2023-02-02T04:46:46.253Z,0.67
2023-02-02T04:49:13.855Z,0.77
2023-02-02T04:51:41.599Z,0.70
2023-02-02T04:54:09.079Z,0.60
2023-02-02T04:56:36.684Z,0.73
2023-02-02T04:59:03.923Z,0.80
2023-02-02T05:01:31.093Z,0.90
2023-02-02T05:03:58.796Z,0.70
2023-02-02T05:06:26.009Z,0.70
2023-02-02T05:08:53.165Z,0.77
2023-02-02T05:11:21.877Z,0.73
2023-02-02T05:13:49.954Z,1.07
2023-02-02T05:16:17.660Z,0.70
2023-02-02T05:18:49.219Z,0.93
2023-02-02T05:21:16.352Z,1.00
2023-02-02T05:23:43.566Z,0.97
2023-02-02T05:26:15.425Z,0.73
2023-02-02T05:28:42.993Z,0.80
2023-02-02T05:31:10.981Z,0.97
2023-02-02T05:33:38.161Z,0.60
2023-02-02T05:36:05.577Z,0.77
2023-02-02T05:38:33.229Z,0.80
2023-02-02T05:41:00.648Z,1.20
2023-02-02T05:43:28.589Z,0.80
2023-02-02T05:45:56.077Z,0.87
2023-02-02T05:48:23.237Z,1.07
2023-02-02T05:51:10.665Z,0.73
2023-02-02T05:53:37.865Z,0.90
2023-02-02T05:56:05.165Z,0.80
2023-02-02T05:58:32.373Z,1.10
2023-02-02T06:00:59.592Z,0.90
2023-02-02T06:03:26.875Z,0.50
2023-02-02T06:05:54.143Z,0.67
2023-02-02T06:08:21.352Z,1.00
2023-02-02T06:10:50.650Z,1.00
2023-02-02T06:13:17.796Z,1.00
2023-02-02T06:15:45.034Z,0.80
2023-02-02T06:18:12.241Z,1.13
2023-02-02T06:20:41.176Z,1.33
2023-02-02T06:23:08.915Z,1.20
2023-02-02T06:25:36.383Z,1.00
2023-02-02T06:28:03.574Z,1.27
2023-02-02T06:30:30.726Z,1.57
2023-02-02T06:33:00.810Z,1.40
2023-02-02T06:35:28.235Z,1.37
2023-02-02T06:37:55.585Z,1.43
2023-02-02T06:40:22.798Z,1.70
2023-02-02T06:42:57.301Z,1.40
2023-02-02T06:45:25.097Z,1.40
2023-02-02T06:47:53.013Z,1.40
2023-02-02T06:50:20.452Z,1.63
2023-02-02T06:52:50.051Z,1.70
2023-02-02T06:55:17.671Z,1.80
2023-02-02T06:57:44.869Z,1.50
2023-02-02T07:00:12.963Z,1.30
2023-02-02T07:02:40.293Z,1.83
2023-02-02T07:05:07.544Z,1.30
2023-02-02T07:07:35.248Z,1.20
2023-02-02T07:10:02.449Z,1.20
2023-02-02T07:12:30.134Z,1.20
2023-02-02T07:14:59.388Z,1.60
2023-02-02T07:17:26.571Z,1.70
2023-02-02T07:19:53.803Z,1.20
2023-02-02T07:22:20.999Z,1.33
2023-02-02T07:24:48.243Z,1.33
2023-02-02T07:27:15.397Z,1.53
2023-02-02T07:29:42.593Z,1.50
2023-02-02T07:32:09.756Z,1.73
2023-02-02T07:34:42.371Z,7.50
2023-02-02T07:37:10.854Z,4.13
2023-02-02T07:39:40.214Z,4.80
2023-02-02T07:42:08.677Z,4.27
2023-02-02T07:44:35.859Z,0.97
2023-02-02T07:47:03.066Z,3.50
2023-02-02T07:49:31.444Z,3.80
2023-02-02T07:51:58.906Z,1.97
2023-02-02T07:54:26.105Z,2.53
2023-02-02T07:56:53.297Z,1.87
2023-02-02T07:59:20.446Z,2.30
2023-02-02T08:01:47.842Z,2.17
2023-02-02T08:04:15.738Z,2.27
2023-02-02T08:06:42.944Z,2.37
2023-02-02T08:09:10.535Z,2.10
2023-02-02T08:11:38.631Z,1.70
2023-02-02T08:14:07.244Z,2.00
2023-02-02T08:16:34.925Z,1.80
2023-02-02T08:19:02.415Z,2.27
2023-02-02T08:21:29.658Z,1.40
2023-02-02T08:23:56.997Z,2.60
2023-02-02T08:26:26.014Z,2.30
2023-02-02T08:28:54.870Z,2.03
2023-02-02T08:31:25.021Z,2.63
2023-02-02T08:33:54.101Z,2.43
2023-02-02T08:36:22.373Z,2.97
2023-02-02T08:38:49.978Z,1.67
2023-02-02T08:41:18.377Z,2.87
2023-02-02T08:43:45.678Z,2.00
2023-02-02T08:46:14.709Z,2.40
2023-02-02T08:48:42.102Z,2.50
2023-02-02T08:51:11.227Z,2.43
2023-02-02T08:53:38.401Z,1.97
2023-02-02T08:56:07.480Z,2.90
2023-02-02T08:58:34.993Z,4.27
2023-02-02T09:01:08.430Z,3.60
2023-02-02T09:03:36.214Z,2.37
2023-02-02T09:06:11.515Z,2.23
2023-02-02T09:08:38.941Z,2.20
2023-02-02T09:11:11.585Z,2.53
2023-02-02T09:13:39.526Z,3.90
2023-02-02T09:16:07.725Z,4.43
2023-02-02T09:18:36.910Z,4.47
2023-02-02T09:21:05.725Z,5.60
2023-02-02T09:23:33.844Z,3.23
2023-02-02T09:26:11.585Z,2.60
2023-02-02T09:28:43.020Z,4.30
2023-02-02T09:31:10.796Z,4.20
2023-02-02T09:33:38.258Z,5.10
2023-02-02T09:36:12.150Z,5.93
2023-02-02T09:38:39.929Z,4.90
2023-02-02T09:41:21.951Z,4.23
2023-02-02T09:43:54.156Z,3.37
2023-02-02T09:46:21.429Z,3.03
2023-02-02T09:48:54.680Z,2.70
2023-02-02T09:51:23.725Z,2.80
2023-02-02T09:53:55.969Z,1.97
2023-02-02T09:56:43.258Z,1.90
2023-02-02T09:59:21.460Z,3.00
2023-02-02T10:01:52.952Z,2.53
2023-02-02T10:04:22.966Z,2.57
2023-02-02T10:07:01.286Z,2.93
2023-02-02T10:09:44.444Z,2.67
2023-02-02T10:12:30.557Z,1.90
2023-02-02T10:15:00.889Z,2.73
2023-02-02T10:17:31.190Z,2.97
2023-02-02T10:20:02.115Z,2.83
2023-02-02T10:22:30.421Z,2.50
2023-02-02T10:24:58.693Z,2.50
2023-02-02T10:27:36.557Z,2.50
2023-02-02T10:30:04.369Z,3.13
2023-02-02T10:32:56.292Z,1.87
2023-02-02T10:35:33.305Z,2.30
2023-02-02T10:38:21.118Z,1.80
2023-02-02T10:41:00.203Z,1.67
2023-02-02T10:43:48.668Z,1.47
2023-02-02T10:46:25.279Z,2.03
2023-02-02T10:48:56.962Z,2.60
2023-02-02T10:51:25.850Z,2.73
2023-02-02T10:53:55.329Z,2.20
2023-02-02T10:56:32.082Z,2.80
2023-02-02T10:59:07.018Z,1.70
2023-02-02T11:01:34.569Z,1.50
2023-02-02T11:04:20.719Z,3.10
2023-02-02T11:06:51.113Z,2.73
2023-02-02T11:09:28.683Z,3.90
2023-02-02T11:11:58.238Z,2.60
2023-02-02T11:14:31.830Z,2.70
2023-02-02T11:17:07.644Z,2.97
2023-02-02T11:19:35.895Z,2.97
2023-02-02T11:22:03.964Z,2.53
2023-02-02T11:24:48.172Z,2.50
2023-02-02T11:27:15.404Z,3.43
2023-02-02T11:29:44.171Z,2.90
2023-02-02T11:32:35.561Z,2.77
2023-02-02T11:35:02.768Z,2.83
2023-02-02T11:37:30.465Z,3.80
2023-02-02T11:40:17.601Z,2.87
2023-02-02T11:42:48.484Z,2.90
2023-02-02T11:45:18.358Z,3.50
2023-02-02T11:47:46.243Z,3.90
2023-02-02T11:50:21.107Z,3.50
2023-02-02T11:52:48.353Z,3.90
2023-02-02T11:55:18.167Z,4.20
2023-02-02T11:58:05.416Z,4.37
2023-02-02T12:00:32.816Z,3.70
2023-02-02T12:03:00.061Z,4.00
2023-02-02T12:05:27.430Z,3.37
2023-02-02T12:07:54.768Z,3.67
2023-02-02T12:10:37.596Z,2.10
2023-02-02T12:13:04.841Z,3.23
2023-02-02T12:15:44.213Z,2.17
2023-02-02T12:18:22.259Z,1.60
2023-02-02T12:20:49.562Z,2.70
2023-02-02T12:23:16.721Z,2.47
2023-02-02T12:25:49.925Z,2.60
2023-02-02T12:28:17.117Z,2.20
2023-02-02T12:30:50.547Z,1.60
2023-02-02T12:33:36.668Z,1.77
2023-02-02T12:36:22.763Z,1.40
2023-02-02T12:39:08.494Z,2.97
2023-02-02T12:41:48.888Z,5.63
2023-02-02T12:44:36.329Z,4.13
2023-02-02T12:47:39.384Z,1.50
2023-02-02T12:50:09.254Z,1.57
2023-02-02T12:52:39.567Z,3.13
2023-02-02T12:55:15.967Z,1.80
2023-02-02T12:58:02.291Z,1.27
2023-02-02T13:00:36.836Z,1.20
2023-02-02T13:03:19.117Z,1.13
2023-02-02T13:06:04.940Z,1.30
2023-02-02T13:08:48.941Z,1.33
2023-02-02T13:11:30.233Z,1.73
2023-02-02T13:14:00.356Z,0.70
2023-02-02T13:16:27.953Z,1.53
2023-02-02T13:18:58.262Z,1.03
2023-02-02T13:21:26.554Z,1.20
2023-02-02T13:23:59.316Z,1.17
2023-02-02T13:26:35.420Z,1.20
2023-02-02T13:29:23.015Z,1.23
2023-02-02T13:31:58.633Z,1.10
2023-02-02T13:34:44.991Z,0.97
2023-02-02T13:37:32.846Z,0.70
2023-02-02T13:40:01.980Z,1.17
2023-02-02T13:42:29.178Z,1.27
2023-02-02T13:45:00.778Z,1.50
2023-02-02T13:47:35.855Z,2.00
2023-02-02T13:50:06.690Z,2.23
2023-02-02T13:52:39.919Z,2.30
2023-02-02T13:55:19.098Z,1.50
2023-02-02T13:57:59.340Z,1.20
2023-02-02T14:00:33.655Z,1.00
2023-02-02T14:03:04.138Z,1.70
2023-02-02T14:05:33.731Z,1.03
2023-02-02T14:08:03.026Z,1.20
2023-02-02T14:10:35.044Z,0.90
2023-02-02T14:13:07.372Z,1.10
2023-02-02T14:15:38.518Z,0.87
2023-02-02T14:18:05.867Z,0.70
2023-02-02T14:20:44.321Z,0.60
2023-02-02T14:23:30.162Z,1.00
2023-02-02T14:26:19.855Z,1.00
2023-02-02T14:28:51.645Z,2.33
2023-02-02T14:31:30.449Z,1.20
2023-02-02T14:34:27.033Z,1.00
2023-02-02T14:37:12.849Z,0.80
2023-02-02T14:40:04.410Z,0.77
2023-02-02T14:42:50.513Z,0.80
2023-02-02T14:45:24.452Z,1.10
2023-02-02T14:47:53.611Z,1.23
2023-02-02T14:50:26.765Z,1.57
2023-02-02T14:53:05.221Z,1.40
2023-02-02T14:55:33.113Z,1.23
2023-02-02T14:58:02.185Z,1.43
2023-02-02T15:00:33.680Z,1.40
2023-02-02T15:03:19.398Z,1.60
2023-02-02T15:05:46.731Z,1.70
2023-02-02T15:08:21.735Z,1.90
2023-02-02T15:10:53.931Z,1.50
2023-02-02T15:13:37.528Z,1.70
2023-02-02T15:16:14.152Z,1.97
2023-02-02T15:18:46.141Z,2.20
2023-02-02T15:21:16.100Z,1.80
2023-02-02T15:23:45.107Z,3.77
2023-02-02T15:26:12.328Z,3.50
2023-02-02T15:28:44.581Z,3.10
2023-02-02T15:31:11.874Z,2.33
2023-02-02T15:33:46.029Z,2.10
2023-02-02T15:36:17.351Z,1.63
2023-02-02T15:38:46.572Z,1.40
2023-02-02T15:41:20.439Z,1.87
2023-02-02T15:43:47.962Z,1.60
2023-02-02T15:46:24.444Z,1.70
2023-02-02T15:49:14.068Z,2.00
2023-02-02T15:51:46.952Z,1.43
2023-02-02T15:54:24.682Z,1.30
2023-02-02T15:56:52.226Z,1.77
2023-02-02T15:59:24.864Z,1.90
2023-02-02T16:01:57.635Z,2.07
2023-02-02T16:04:29.259Z,2.40
2023-02-02T16:06:56.933Z,1.77
2023-02-02T16:09:28.791Z,1.63
2023-02-02T16:11:56.139Z,2.10
2023-02-02T16:14:23.938Z,1.47
2023-02-02T16:16:51.510Z,1.80
2023-02-02T16:19:23.788Z,1.73
2023-02-02T16:21:59.618Z,1.50
2023-02-02T16:24:29.461Z,1.37
2023-02-02T16:26:59.222Z,1.47
2023-02-02T16:29:28.235Z,1.33
2023-02-02T16:31:56.384Z,1.57
2023-02-02T16:34:42.060Z,1.17
2023-02-02T16:37:15.076Z,1.47
2023-02-02T16:39:42.607Z,1.10
2023-02-02T16:42:23.547Z,1.20
2023-02-02T16:44:50.969Z,1.40
2023-02-02T16:47:27.072Z,1.73
2023-02-02T16:49:55.631Z,8.33
2023-02-02T16:52:23.241Z,15.63
2023-02-02T16:54:52.179Z,16.77
2023-02-02T16:57:21.290Z,10.67
2023-02-02T16:59:50.319Z,6.20
2023-02-02T17:02:21.149Z,4.67
2023-02-02T17:04:50.541Z,4.50
2023-02-02T17:07:17.997Z,3.43
2023-02-02T17:09:46.506Z,2.30
2023-02-02T17:12:31.978Z,2.13
2023-02-02T17:15:04.775Z,1.80
2023-02-02T17:17:31.995Z,2.63
2023-02-02T17:19:59.250Z,2.13
2023-02-02T17:22:27.834Z,2.10
2023-02-02T17:24:55.148Z,2.40
2023-02-02T17:27:27.140Z,2.50
2023-02-02T17:29:54.844Z,1.90
2023-02-02T17:32:23.713Z,2.87
2023-02-02T17:34:50.989Z,3.33
2023-02-02T17:37:18.326Z,3.70
2023-02-02T17:39:45.659Z,6.17
2023-02-02T17:42:25.085Z,5.73
2023-02-02T17:44:52.494Z,4.60
2023-02-02T17:47:19.743Z,7.00
2023-02-02T17:49:46.958Z,8.53
2023-02-02T17:52:14.241Z,6.77
2023-02-02T17:54:41.455Z,5.83
2023-02-02T17:57:08.643Z,6.13
2023-02-02T17:59:35.816Z,5.83
2023-02-02T18:02:03.045Z,5.83
2023-02-02T18:04:30.274Z,2.97
2023-02-02T18:06:57.560Z,3.80
2023-02-02T18:09:24.934Z,2.37
2023-02-02T18:11:52.627Z,2.40
2023-02-02T18:14:19.900Z,2.20
2023-02-02T18:16:47.275Z,2.00
2023-02-02T18:19:14.507Z,2.60
2023-02-02T18:21:41.757Z,2.20
2023-02-02T18:24:09.158Z,2.67
2023-02-02T18:26:36.410Z,2.83
2023-02-02T18:29:03.619Z,3.17
2023-02-02T18:31:31.180Z,2.60
2023-02-02T18:33:58.584Z,3.10
2023-02-02T18:36:25.863Z,2.90
2023-02-02T18:38:54.008Z,2.90
2023-02-02T18:41:21.637Z,2.30
2023-02-02T18:43:48.914Z,2.83
2023-02-02T18:46:17.330Z,2.97
2023-02-02T18:48:44.594Z,1.97
2023-02-02T18:51:16.366Z,2.80
2023-02-02T18:53:43.958Z,2.33
2023-02-02T18:56:12.482Z,2.30
2023-02-02T18:58:40.354Z,2.00
2023-02-02T19:01:08.670Z,2.37
2023-02-02T19:03:36.771Z,3.57
2023-02-02T19:06:23.971Z,3.37
2023-02-02T19:08:51.258Z,3.60
2023-02-02T19:11:20.048Z,2.63
2023-02-02T19:13:48.138Z,2.73
2023-02-02T19:16:18.625Z,2.77
2023-02-02T19:18:46.314Z,2.93
2023-02-02T19:21:14.507Z,2.80
2023-02-02T19:23:42.495Z,3.10
2023-02-02T19:26:22.125Z,4.57
2023-02-02T19:28:49.805Z,4.27
2023-02-02T19:31:17.679Z,6.00
2023-02-02T19:33:46.691Z,7.90
2023-02-02T19:36:15.445Z,7.40
2023-02-02T19:38:42.922Z,8.07
2023-02-02T19:41:16.289Z,9.13
2023-02-02T19:43:47.626Z,8.20
2023-02-02T19:46:16.450Z,6.43
2023-02-02T19:48:43.752Z,8.33
2023-02-02T19:51:29.800Z,13.00
2023-02-02T19:53:59.982Z,15.70
2023-02-02T19:56:28.567Z,15.57
2023-02-02T19:58:55.873Z,12.00
2023-02-02T20:01:25.544Z,9.13
2023-02-02T20:03:53.251Z,8.43
2023-02-02T20:06:23.940Z,7.97
2023-02-02T20:08:51.353Z,7.77
2023-02-02T20:11:24.709Z,8.57
2023-02-02T20:13:52.269Z,8.30
2023-02-02T20:16:20.290Z,8.07
2023-02-02T20:18:53.584Z,8.13
2023-02-02T20:21:28.330Z,6.77
2023-02-02T20:23:55.585Z,6.77
2023-02-02T20:26:26.127Z,6.20
2023-02-02T20:28:54.909Z,5.83
2023-02-02T20:31:24.292Z,6.27
2023-02-02T20:33:52.931Z,7.00
2023-02-02T20:36:23.323Z,7.77
2023-02-02T20:38:50.560Z,8.47
2023-02-02T20:41:18.897Z,8.23
2023-02-02T20:43:46.438Z,6.60
2023-02-02T20:46:15.295Z,6.53
2023-02-02T20:48:47.713Z,5.70
2023-02-02T20:51:15.851Z,6.33
2023-02-02T20:53:43.273Z,6.43
2023-02-02T20:56:10.453Z,5.30
2023-02-02T20:58:37.668Z,5.23
2023-02-02T21:01:05.864Z,7.67
2023-02-02T21:03:33.569Z,14.20
2023-02-02T21:06:00.771Z,9.90
2023-02-02T21:08:28.050Z,6.70
2023-02-02T21:10:55.249Z,6.40
2023-02-02T21:13:22.544Z,6.27
2023-02-02T21:15:49.772Z,5.83
2023-02-02T21:18:16.981Z,6.13
2023-02-02T21:20:44.199Z,6.27
2023-02-02T21:23:11.459Z,6.43
2023-02-02T21:25:38.668Z,6.60
2023-02-02T21:28:05.939Z,7.37
2023-02-02T21:30:33.305Z,7.43
2023-02-02T21:33:00.659Z,8.63
2023-02-02T21:35:27.942Z,7.60
2023-02-02T21:37:57.373Z,6.37
2023-02-02T21:40:29.044Z,5.60
2023-02-02T21:42:58.417Z,6.30
2023-02-02T21:45:28.681Z,5.90
2023-02-02T21:47:57.231Z,7.17
2023-02-02T21:50:29.436Z,7.87
2023-02-02T21:53:11.924Z,7.10
2023-02-02T21:55:40.008Z,6.80
2023-02-02T21:58:26.253Z,6.90
2023-02-02T22:00:54.485Z,6.80
2023-02-02T22:03:39.020Z,6.87
2023-02-02T22:06:18.957Z,4.90
2023-02-02T22:08:46.304Z,5.10
2023-02-02T22:11:36.523Z,5.60
2023-02-02T22:14:19.081Z,5.77
2023-02-02T22:16:50.275Z,4.73
2023-02-02T22:19:20.542Z,5.47
2023-02-02T22:21:47.752Z,5.70
2023-02-02T22:24:15.143Z,5.77
2023-02-02T22:26:42.672Z,4.77
2023-02-02T22:29:17.965Z,5.53
2023-02-02T22:31:45.249Z,8.80
2023-02-02T22:34:12.477Z,10.90
2023-02-02T22:36:39.779Z,8.07
2023-02-02T22:39:06.998Z,14.73
2023-02-02T22:41:34.182Z,16.27
2023-02-02T22:44:01.417Z,9.97
2023-02-02T22:46:28.680Z,7.83
2023-02-02T22:48:55.911Z,6.83
2023-02-02T22:51:23.152Z,6.90
2023-02-02T22:53:50.408Z,6.60
2023-02-02T22:56:17.639Z,6.67
2023-02-02T22:58:44.832Z,6.73
2023-02-02T23:01:13.676Z,7.27
2023-02-02T23:03:41.069Z,7.40
2023-02-02T23:06:08.313Z,6.33
2023-02-02T23:08:35.712Z,6.80
2023-02-02T23:11:02.926Z,6.80
2023-02-02T23:13:30.146Z,8.10
2023-02-02T23:15:57.401Z,7.70
2023-02-02T23:18:24.919Z,6.73
2023-02-02T23:20:52.092Z,7.57
2023-02-02T23:23:19.277Z,7.00
2023-02-02T23:25:46.470Z,8.33
2023-02-02T23:28:13.735Z,9.30
2023-02-02T23:30:40.947Z,8.47
2023-02-02T23:33:08.194Z,7.73
2023-02-02T23:35:35.484Z,9.43
2023-02-02T23:38:02.685Z,8.50
2023-02-02T23:40:29.873Z,10.17
2023-02-02T23:42:57.107Z,9.03
2023-02-02T23:45:24.674Z,8.17
2023-02-02T23:47:51.883Z,7.63
2023-02-02T23:50:19.297Z,8.13
2023-02-02T23:52:46.480Z,8.47
2023-02-02T23:55:14.549Z,7.30
2023-02-02T23:57:42.368Z,7.67
